Time;durP1;ratioP1;P1;durP2;ratioP2;P2;SDS_P1;SDS_P2;PMS_P1;PMS_P2;Temp;Humidity;BMP_temperature;BMP_pressure;BME280_temperature;BME280_humidity;BME280_pressure;Samples;Min_cycle;Max_cycle;Signal;HPM_P1;HPM_P2
2021/08/08 00:01:40;;;;;;;2.33;2.13;;;17.90;65.30;;;;;;5034650;28;20048;-84
2021/08/08 00:04:06;;;;;;;2.45;2.35;;;17.90;65.50;;;;;;5034344;28;20021;-84
2021/08/08 00:06:33;;;;;;;2.22;2.13;;;17.80;65.50;;;;;;5035500;28;20049;-84
2021/08/08 00:08:59;;;;;;;2.35;2.15;;;17.80;65.50;;;;;;5031880;28;20034;-84
2021/08/08 00:11:26;;;;;;;2.30;2.20;;;17.80;65.60;;;;;;5017758;28;20045;-85
2021/08/08 00:13:52;;;;;;;3.95;2.50;;;17.80;65.60;;;;;;5036047;28;20048;-86
2021/08/08 00:16:18;;;;;;;2.03;1.92;;;17.80;65.70;;;;;;5034378;28;20398;-84
2021/08/08 00:18:44;;;;;;;2.15;2.05;;;17.80;65.70;;;;;;5034007;28;20025;-84
2021/08/08 00:21:10;;;;;;;2.10;2.00;;;17.80;65.80;;;;;;5033381;28;20033;-83
2021/08/08 00:23:36;;;;;;;2.08;1.98;;;17.70;65.80;;;;;;5030896;28;20053;-86
2021/08/08 00:26:02;;;;;;;2.10;2.00;;;17.70;65.90;;;;;;5037196;28;20462;-84
2021/08/08 00:28:28;;;;;;;2.47;2.38;;;17.70;65.90;;;;;;5035120;28;20033;-84
2021/08/08 00:30:55;;;;;;;2.42;2.33;;;17.70;66.00;;;;;;5033234;28;20045;-85
2021/08/08 00:33:21;;;;;;;2.55;2.38;;;17.70;66.00;;;;;;5033416;28;20057;-84
2021/08/08 00:35:47;;;;;;;2.22;2.13;;;17.70;66.10;;;;;;5031002;28;20030;-84
2021/08/08 00:38:13;;;;;;;2.28;2.15;;;17.70;66.90;;;;;;5035679;28;20030;-84
2021/08/08 00:40:39;;;;;;;2.17;2.08;;;17.60;66.10;;;;;;5033709;28;20044;-84
2021/08/08 00:43:09;;;;;;;2.20;2.10;;;17.60;66.20;;;;;;5034448;28;20045;-84
2021/08/08 00:45:36;;;;;;;3.72;2.63;;;17.60;66.30;;;;;;5019292;28;20025;-84
2021/08/08 00:48:02;;;;;;;2.17;2.08;;;17.60;66.30;;;;;;5030181;28;20505;-84
2021/08/08 00:50:28;;;;;;;3.47;2.70;;;17.60;66.30;;;;;;5034643;28;20041;-84
2021/08/08 00:52:54;;;;;;;2.33;2.22;;;17.60;66.50;;;;;;5051131;28;20493;-84
2021/08/08 00:55:20;;;;;;;2.00;1.90;;;17.60;66.50;;;;;;5038478;28;20052;-84
2021/08/08 00:57:46;;;;;;;2.30;2.20;;;17.60;66.60;;;;;;5041155;28;20029;-85
2021/08/08 01:00:13;;;;;;;2.63;2.45;;;17.60;66.70;;;;;;5039356;28;20040;-85
2021/08/08 01:02:43;;;;;;;2.55;2.20;;;17.50;66.60;;;;;;5038639;28;20474;-84
2021/08/08 01:05:10;;;;;;;2.30;2.20;;;17.50;66.70;;;;;;5041855;28;20383;-84
2021/08/08 01:07:40;;;;;;;2.75;2.65;;;17.50;66.80;;;;;;5040637;28;20036;-84
2021/08/08 01:10:07;;;;;;;2.10;2.00;;;17.50;66.80;;;;;;5006455;28;20068;-87
2021/08/08 01:12:33;;;;;;;2.15;2.05;;;17.50;66.90;;;;;;5038373;28;20024;-84
2021/08/08 01:14:59;;;;;;;2.38;2.25;;;17.40;66.90;;;;;;5020186;28;20389;-84
2021/08/08 01:17:25;;;;;;;2.03;1.92;;;17.40;67.00;;;;;;5023487;28;20044;-84
2021/08/08 01:19:59;;;;;;;2.10;2.00;;;17.40;67.00;;;;;;5041583;28;20487;-84
2021/08/08 01:22:30;;;;;;;2.20;2.10;;;17.40;67.10;;;;;;5024446;28;20026;-84
2021/08/08 01:24:57;;;;;;;2.53;2.40;;;17.40;67.20;;;;;;5041011;28;20501;-83
2021/08/08 01:27:23;;;;;;;2.10;2.00;;;17.40;67.20;;;;;;5039529;28;20040;-83
2021/08/08 01:29:51;;;;;;;2.58;2.38;;;17.30;67.20;;;;;;5018143;28;20053;-84
2021/08/08 01:32:17;;;;;;;2.13;1.98;;;17.30;67.20;;;;;;5057603;28;20041;-83
2021/08/08 01:34:43;;;;;;;2.20;2.10;;;17.30;67.30;;;;;;5038749;28;20041;-85
2021/08/08 01:37:09;;;;;;;2.22;2.13;;;17.30;67.40;;;;;;5040024;28;20037;-84
2021/08/08 01:39:35;;;;;;;2.10;2.00;;;17.30;67.40;;;;;;5039737;28;20037;-84
2021/08/08 01:42:07;;;;;;;2.22;2.13;;;17.30;67.40;;;;;;5036496;28;20038;-84
2021/08/08 01:44:38;;;;;;;2.40;2.20;;;17.30;67.50;;;;;;5005605;28;20056;-84
2021/08/08 01:47:04;;;;;;;2.10;2.00;;;17.30;67.50;;;;;;5055932;28;20041;-85
2021/08/08 01:49:30;;;;;;;2.30;2.20;;;17.30;67.60;;;;;;5040702;28;20404;-84
2021/08/08 01:51:57;;;;;;;2.30;2.20;;;17.30;67.60;;;;;;5023387;28;20025;-84
2021/08/08 01:54:23;;;;;;;2.20;2.08;;;17.30;67.60;;;;;;5038867;28;20053;-83
2021/08/08 01:56:51;;;;;;;3.28;2.25;;;17.30;67.70;;;;;;5035122;28;20038;-84
2021/08/08 01:59:17;;;;;;;3.70;2.42;;;17.30;67.70;;;;;;5041446;28;20029;-83
2021/08/08 02:01:43;;;;;;;1.92;1.83;;;17.30;67.70;;;;;;5035471;28;20033;-85
2021/08/08 02:04:17;;;;;;;2.10;2.00;;;17.30;67.70;;;;;;5028562;28;20037;-85
2021/08/08 02:06:43;;;;;;;2.08;1.98;;;17.30;67.80;;;;;;5027831;28;20040;-85
2021/08/08 02:09:09;;;;;;;2.00;1.90;;;17.30;67.70;;;;;;5031537;28;20466;-84
2021/08/08 02:11:35;;;;;;;2.15;2.05;;;17.30;67.70;;;;;;5031510;28;20053;-85
2021/08/08 02:14:01;;;;;;;2.10;2.00;;;17.30;67.90;;;;;;5031031;28;20037;-84
2021/08/08 02:16:27;;;;;;;2.10;2.00;;;17.30;67.90;;;;;;5029106;28;20057;-83
2021/08/08 02:18:54;;;;;;;2.08;1.98;;;17.30;67.90;;;;;;5028010;28;20030;-83
2021/08/08 02:21:20;;;;;;;2.00;1.90;;;17.30;68.00;;;;;;5030260;28;20405;-84
2021/08/08 02:23:46;;;;;;;2.03;1.92;;;17.30;68.10;;;;;;5030316;28;20041;-85
2021/08/08 02:26:12;;;;;;;6.07;2.35;;;17.30;68.10;;;;;;5030756;28;20599;-84
2021/08/08 02:28:38;;;;;;;2.75;2.55;;;17.30;68.10;;;;;;5029162;28;20025;-84
2021/08/08 02:31:04;;;;;;;2.10;2.00;;;17.30;68.10;;;;;;5028646;28;20060;-85
2021/08/08 02:33:30;;;;;;;2.20;2.10;;;17.20;68.00;;;;;;5028930;28;20045;-83
2021/08/08 02:35:56;;;;;;;2.10;2.00;;;17.30;68.10;;;;;;5029368;28;20478;-84
2021/08/08 02:38:24;;;;;;;1.98;1.88;;;17.30;68.10;;;;;;5049266;28;20033;-85
2021/08/08 02:40:50;;;;;;;3.83;2.88;;;17.30;68.10;;;;;;5037265;28;20029;-84
2021/08/08 02:43:16;;;;;;;2.00;1.90;;;17.30;68.20;;;;;;5035996;28;20014;-83
2021/08/08 02:45:42;;;;;;;2.00;1.90;;;17.30;68.20;;;;;;5003468;28;20414;-84
2021/08/08 02:48:08;;;;;;;2.17;2.05;;;17.30;68.20;;;;;;5034568;28;20030;-84
2021/08/08 02:50:35;;;;;;;2.50;2.35;;;17.30;68.20;;;;;;5034846;28;20054;-85
2021/08/08 02:53:01;;;;;;;2.17;2.08;;;17.30;68.30;;;;;;5038459;28;20394;-84
2021/08/08 02:55:27;;;;;;;2.10;2.00;;;17.40;68.40;;;;;;5036342;28;20505;-84
2021/08/08 02:57:53;;;;;;;2.10;2.00;;;17.30;68.30;;;;;;5036704;28;20021;-84
2021/08/08 03:00:19;;;;;;;2.10;2.00;;;17.30;68.40;;;;;;5035466;28;20044;-84
2021/08/08 03:02:45;;;;;;;2.10;2.00;;;17.30;68.50;;;;;;5031814;28;20414;-84
2021/08/08 03:05:11;;;;;;;2.15;2.05;;;17.30;68.50;;;;;;5038521;28;20044;-83
2021/08/08 03:07:38;;;;;;;13.02;2.42;;;17.30;68.50;;;;;;5035389;28;20038;-85
2021/08/08 03:10:05;;;;;;;2.15;2.05;;;17.30;68.60;;;;;;5036142;28;20044;-85
2021/08/08 03:12:31;;;;;;;2.08;1.98;;;17.30;68.60;;;;;;5018955;28;20029;-85
2021/08/08 03:14:57;;;;;;;2.10;2.00;;;17.30;68.60;;;;;;5031229;28;20037;-85
2021/08/08 03:17:23;;;;;;;2.05;1.95;;;17.30;68.70;;;;;;5036239;28;20029;-86
2021/08/08 03:19:49;;;;;;;2.03;1.92;;;17.30;68.70;;;;;;5034304;28;20033;-84
2021/08/08 03:22:15;;;;;;;1.98;1.88;;;17.30;68.80;;;;;;5035129;28;20025;-85
2021/08/08 03:24:42;;;;;;;2.00;1.90;;;17.30;68.80;;;;;;5035797;28;20036;-85
2021/08/08 03:27:08;;;;;;;1.80;1.70;;;17.30;68.90;;;;;;5016444;28;20026;-85
2021/08/08 03:29:35;;;;;;;2.00;1.90;;;17.30;69.00;;;;;;5034154;28;20033;-85
2021/08/08 03:32:01;;;;;;;2.10;2.00;;;17.30;69.00;;;;;;5066523;28;20371;-85
2021/08/08 03:34:27;;;;;;;5.88;2.10;;;17.30;69.10;;;;;;5035918;28;20048;-85
2021/08/08 03:36:53;;;;;;;2.00;1.90;;;17.30;69.10;;;;;;5035604;28;20045;-84
2021/08/08 03:39:23;;;;;;;2.13;2.03;;;17.30;69.20;;;;;;5033923;28;20028;-84
2021/08/08 03:41:49;;;;;;;1.98;1.88;;;17.30;69.20;;;;;;5030534;28;20034;-84
2021/08/08 03:44:15;;;;;;;2.00;1.90;;;17.20;69.30;;;;;;5037952;28;20037;-84
2021/08/08 03:46:41;;;;;;;2.17;2.08;;;17.20;69.30;;;;;;5034289;28;20041;-85
2021/08/08 03:49:09;;;;;;;2.13;2.03;;;17.20;69.40;;;;;;5035732;28;20092;-84
2021/08/08 03:51:36;;;;;;;2.00;1.90;;;17.20;69.50;;;;;;5018501;28;20470;-84
2021/08/08 03:54:02;;;;;;;2.08;1.98;;;17.20;69.60;;;;;;5030195;28;20029;-85
2021/08/08 03:56:28;;;;;;;2.25;2.15;;;17.20;69.60;;;;;;5034201;28;20044;-85
2021/08/08 03:58:54;;;;;;;2.33;2.15;;;17.20;69.60;;;;;;5049396;28;20029;-85
2021/08/08 04:01:20;;;;;;;2.10;2.00;;;17.20;69.70;;;;;;5035061;28;20034;-85
2021/08/08 04:03:47;;;;;;;1.98;1.88;;;17.20;69.70;;;;;;5033521;28;20033;-85
2021/08/08 04:06:13;;;;;;;2.00;1.90;;;17.20;69.80;;;;;;5032331;28;20030;-85
2021/08/08 04:08:39;;;;;;;1.90;1.80;;;17.10;69.80;;;;;;5032816;28;20044;-85
2021/08/08 04:11:13;;;;;;;2.30;2.20;;;17.10;69.90;;;;;;5038256;28;20037;-85
2021/08/08 04:13:39;;;;;;;1.92;1.83;;;17.10;69.90;;;;;;5035774;28;20037;-85
2021/08/08 04:16:05;;;;;;;1.77;1.67;;;17.10;69.90;;;;;;5033169;28;20048;-86
2021/08/08 04:18:31;;;;;;;2.00;1.90;;;17.10;70.00;;;;;;5034285;28;20040;-85
2021/08/08 04:20:57;;;;;;;2.38;2.20;;;17.10;70.00;;;;;;5031199;28;20438;-86
2021/08/08 04:23:24;;;;;;;2.63;2.40;;;17.10;70.00;;;;;;5034693;28;20037;-86
2021/08/08 04:25:50;;;;;;;2.15;2.05;;;17.10;70.10;;;;;;5032971;28;20046;-86
2021/08/08 04:28:16;;;;;;;2.00;1.90;;;17.10;70.20;;;;;;5016280;28;20033;-85
2021/08/08 04:30:42;;;;;;;1.85;1.75;;;17.10;70.20;;;;;;5033965;28;20052;-86
2021/08/08 04:33:08;;;;;;;2.17;2.08;;;17.10;70.20;;;;;;5013756;28;20069;-86
2021/08/08 04:35:36;;;;;;;3.40;2.10;;;17.10;70.30;;;;;;5032175;28;20490;-86
2021/08/08 04:38:02;;;;;;;2.20;2.10;;;17.10;70.30;;;;;;5033485;28;20033;-86
2021/08/08 04:40:28;;;;;;;2.15;2.05;;;17.10;70.40;;;;;;5032585;28;20061;-85
2021/08/08 04:42:54;;;;;;;2.05;1.95;;;17.10;70.40;;;;;;5034953;28;20025;-84
2021/08/08 04:45:20;;;;;;;2.10;2.00;;;17.10;70.50;;;;;;5033882;28;20466;-85
2021/08/08 04:47:47;;;;;;;1.80;1.70;;;17.00;70.50;;;;;;5029670;28;20034;-86
2021/08/08 04:50:13;;;;;;;2.00;1.90;;;17.00;70.50;;;;;;5036441;28;20049;-86
2021/08/08 04:52:39;;;;;;;1.90;1.80;;;17.00;70.60;;;;;;5035018;28;20037;-85
2021/08/08 04:55:06;;;;;;;1.90;1.80;;;17.00;70.60;;;;;;5033603;28;20033;-85
2021/08/08 04:57:32;;;;;;;1.88;1.77;;;17.00;70.70;;;;;;5034746;28;20040;-85
2021/08/08 04:59:58;;;;;;;2.15;2.05;;;17.00;70.70;;;;;;5013310;28;20048;-86
2021/08/08 05:02:25;;;;;;;2.10;2.00;;;17.00;70.70;;;;;;5034936;28;20037;-86
2021/08/08 05:04:51;;;;;;;2.15;2.05;;;17.00;70.80;;;;;;5033629;28;20032;-87
2021/08/08 05:07:17;;;;;;;1.90;1.80;;;17.00;70.90;;;;;;5033548;28;20037;-85
2021/08/08 05:09:43;;;;;;;2.00;1.90;;;17.00;70.90;;;;;;5034704;28;20033;-86
2021/08/08 05:12:10;;;;;;;2.75;2.50;;;17.00;70.90;;;;;;5029966;28;20033;-85
2021/08/08 05:14:39;;;;;;;2.08;1.98;;;17.00;71.00;;;;;;5049406;28;20021;-85
2021/08/08 05:17:05;;;;;;;1.95;1.85;;;17.00;71.00;;;;;;5034382;28;20037;-85
2021/08/08 05:19:31;;;;;;;2.10;2.00;;;16.90;71.00;;;;;;5038997;28;20029;-85
2021/08/08 05:21:57;;;;;;;2.13;2.03;;;16.90;71.10;;;;;;5040425;28;20026;-84
2021/08/08 05:24:24;;;;;;;2.22;2.03;;;16.90;71.10;;;;;;5032916;28;20045;-85
2021/08/08 05:26:50;;;;;;;4.95;1.95;;;16.90;71.20;;;;;;5030397;28;20034;-86
2021/08/08 05:29:16;;;;;;;1.80;1.70;;;16.90;71.20;;;;;;5036531;28;20033;-85
2021/08/08 05:31:42;;;;;;;1.92;1.83;;;16.90;71.20;;;;;;5032374;28;20410;-86
2021/08/08 05:34:08;;;;;;;1.90;1.80;;;17.00;71.20;;;;;;5033033;28;20046;-85
2021/08/08 05:36:34;;;;;;;2.10;2.00;;;17.10;71.80;;;;;;5033344;28;20029;-85
2021/08/08 05:39:00;;;;;;;2.08;1.98;;;17.30;70.90;;;;;;5031231;28;20044;-85
2021/08/08 05:41:27;;;;;;;2.00;1.90;;;17.40;70.60;;;;;;5036675;28;20038;-85
2021/08/08 05:43:53;;;;;;;2.20;2.10;;;17.50;70.60;;;;;;5039063;28;20459;-85
2021/08/08 05:46:19;;;;;;;2.42;2.33;;;17.60;70.40;;;;;;5045332;28;20041;-85
2021/08/08 05:48:46;;;;;;;2.03;1.92;;;17.70;70.30;;;;;;5045025;28;20049;-86
2021/08/08 05:51:12;;;;;;;2.40;2.30;;;17.80;70.20;;;;;;5034650;28;20060;-85
2021/08/08 05:53:38;;;;;;;2.83;2.72;;;17.90;70.00;;;;;;5036037;28;20390;-85
2021/08/08 05:56:04;;;;;;;2.40;2.30;;;18.00;69.90;;;;;;5037761;28;20041;-85
2021/08/08 05:58:30;;;;;;;2.22;2.13;;;18.10;69.80;;;;;;5036178;28;20486;-85
2021/08/08 06:00:56;;;;;;;2.63;2.53;;;18.20;69.80;;;;;;5037146;28;20029;-86
2021/08/08 06:03:22;;;;;;;2.83;2.72;;;18.20;69.70;;;;;;5037336;28;20139;-85
2021/08/08 06:05:48;;;;;;;2.45;2.35;;;18.40;69.70;;;;;;5032469;28;20041;-85
2021/08/08 06:08:14;;;;;;;2.50;2.40;;;18.50;69.40;;;;;;5039698;28;20042;-85
2021/08/08 06:10:40;;;;;;;2.38;2.28;;;18.60;69.10;;;;;;5036445;28;20428;-85
2021/08/08 06:13:06;;;;;;;2.40;2.30;;;18.80;69.00;;;;;;5035871;28;20041;-85
2021/08/08 06:15:32;;;;;;;2.42;2.33;;;19.00;68.80;;;;;;5037123;28;20029;-85
2021/08/08 06:17:59;;;;;;;3.28;3.17;;;19.10;68.60;;;;;;5033545;28;20041;-86
2021/08/08 06:20:25;;;;;;;3.20;3.10;;;19.20;68.40;;;;;;5036805;28;20037;-85
2021/08/08 06:22:51;;;;;;;3.38;3.22;;;19.30;68.30;;;;;;5051892;28;20048;-85
2021/08/08 06:25:17;;;;;;;8.65;3.80;;;19.40;68.20;;;;;;5036306;28;20037;-85
2021/08/08 06:27:43;;;;;;;4.03;3.47;;;19.50;68.00;;;;;;5037285;28;20037;-84
2021/08/08 06:30:10;;;;;;;3.30;3.20;;;19.60;67.90;;;;;;5033088;28;20025;-85
2021/08/08 06:32:36;;;;;;;3.53;3.33;;;19.70;67.80;;;;;;5034917;28;20486;-85
2021/08/08 06:35:03;;;;;;;3.42;3.22;;;19.80;67.60;;;;;;5035645;28;20033;-86
2021/08/08 06:37:29;;;;;;;3.30;3.20;;;20.00;67.40;;;;;;5037142;28;20033;-85
2021/08/08 06:39:55;;;;;;;2.75;2.65;;;20.10;67.20;;;;;;5037406;28;20032;-86
2021/08/08 06:42:22;;;;;;;3.00;2.90;;;20.20;67.10;;;;;;5035487;28;20040;-85
2021/08/08 06:44:48;;;;;;;2.67;2.58;;;20.30;66.90;;;;;;5031916;28;20032;-85
2021/08/08 06:47:14;;;;;;;3.75;3.55;;;20.40;66.80;;;;;;5038043;28;20057;-85
2021/08/08 06:49:40;;;;;;;3.00;2.90;;;20.40;66.70;;;;;;5035813;28;20034;-85
2021/08/08 06:52:06;;;;;;;6.60;3.30;;;20.50;66.70;;;;;;5036223;28;20425;-85
2021/08/08 06:54:32;;;;;;;2.95;2.85;;;20.50;66.60;;;;;;5036811;28;20025;-85
2021/08/08 06:56:58;;;;;;;3.10;3.00;;;20.60;66.60;;;;;;5031485;28;20461;-85
2021/08/08 06:59:29;;;;;;;3.10;3.00;;;20.60;66.40;;;;;;5037533;28;20026;-84
2021/08/08 07:01:56;;;;;;;3.45;3.30;;;20.70;66.40;;;;;;5049338;28;20037;-85
2021/08/08 07:04:23;;;;;;;3.65;3.47;;;20.70;66.30;;;;;;5034553;28;20033;-85
2021/08/08 07:06:49;;;;;;;3.10;3.00;;;20.80;66.20;;;;;;5036499;28;20481;-86
2021/08/08 07:09:16;;;;;;;3.72;3.53;;;20.90;66.00;;;;;;5033918;28;20481;-85
2021/08/08 07:11:42;;;;;;;3.97;3.78;;;21.00;65.90;;;;;;5032244;28;20047;-86
2021/08/08 07:14:08;;;;;;;3.90;3.70;;;21.00;65.70;;;;;;5037029;28;20026;-84
2021/08/08 07:16:34;;;;;;;3.83;3.63;;;21.10;65.60;;;;;;5035745;28;20037;-85
2021/08/08 07:19:00;;;;;;;3.90;3.63;;;21.20;65.50;;;;;;5035221;28;20398;-85
2021/08/08 07:21:26;;;;;;;19.33;3.97;;;21.30;65.30;;;;;;5036463;28;20501;-85
2021/08/08 07:23:52;;;;;;;3.40;3.30;;;21.40;65.10;;;;;;5030679;28;20045;-85
2021/08/08 07:26:19;;;;;;;3.95;3.75;;;21.50;65.00;;;;;;5049385;28;20045;-82
2021/08/08 07:28:45;;;;;;;3.80;3.60;;;21.60;64.80;;;;;;5036333;28;20033;-84
2021/08/08 07:31:11;;;;;;;4.03;3.72;;;21.70;64.80;;;;;;5035293;28;20497;-87
2021/08/08 07:33:37;;;;;;;8.63;4.38;;;21.80;64.40;;;;;;5035900;28;20060;-85
2021/08/08 07:36:03;;;;;;;3.97;3.78;;;21.90;64.20;;;;;;5032931;28;20022;-85
2021/08/08 07:38:30;;;;;;;4.38;3.97;;;22.10;63.90;;;;;;5035667;28;20029;-86
2021/08/08 07:40:56;;;;;;;4.03;3.83;;;22.20;63.70;;;;;;5036813;28;20032;-86
2021/08/08 07:43:22;;;;;;;3.95;3.75;;;22.30;63.40;;;;;;5034271;28;20047;-85
2021/08/08 07:45:48;;;;;;;4.13;3.92;;;22.40;63.20;;;;;;5034089;28;20032;-85
2021/08/08 07:48:14;;;;;;;4.50;4.30;;;22.50;63.00;;;;;;5034564;28;20041;-85
2021/08/08 07:50:40;;;;;;;4.35;4.15;;;22.70;62.70;;;;;;5033458;28;20030;-87
2021/08/08 07:53:06;;;;;;;5.00;4.35;;;22.70;62.60;;;;;;5050205;28;20378;-86
2021/08/08 07:55:32;;;;;;;4.32;4.13;;;22.80;62.60;;;;;;5037707;28;20497;-85
2021/08/08 07:57:58;;;;;;;4.43;4.22;;;22.90;62.40;;;;;;5035606;28;20029;-86
2021/08/08 08:00:24;;;;;;;4.80;4.60;;;22.90;62.20;;;;;;5033558;28;20474;-87
2021/08/08 08:02:50;;;;;;;4.50;4.30;;;23.00;62.00;;;;;;5047387;28;20040;-85
2021/08/08 08:05:17;;;;;;;4.60;4.40;;;23.20;61.90;;;;;;5036509;28;20037;-85
2021/08/08 08:07:43;;;;;;;5.25;5.03;;;23.40;61.50;;;;;;5035392;28;20025;-85
2021/08/08 08:10:09;;;;;;;5.05;4.85;;;23.50;61.10;;;;;;5034515;28;20034;-86
2021/08/08 08:12:36;;;;;;;5.10;4.90;;;23.60;60.90;;;;;;5035330;28;20116;-86
2021/08/08 08:15:03;;;;;;;4.95;4.75;;;23.70;60.70;;;;;;5029885;28;20026;-84
2021/08/08 08:17:29;;;;;;;5.03;4.82;;;23.70;60.60;;;;;;5034054;28;20045;-86
2021/08/08 08:19:55;;;;;;;5.85;5.55;;;23.80;60.60;;;;;;5034959;28;20029;-85
2021/08/08 08:22:21;;;;;;;9.63;5.65;;;23.80;60.60;;;;;;5035065;28;20096;-85
2021/08/08 08:24:47;;;;;;;6.32;6.03;;;23.80;60.60;;;;;;5035068;28;20036;-86
2021/08/08 08:27:13;;;;;;;5.90;5.60;;;23.80;60.50;;;;;;5031598;28;20386;-85
2021/08/08 08:29:39;;;;;;;5.95;5.68;;;23.80;60.40;;;;;;5032931;28;20100;-85
2021/08/08 08:32:06;;;;;;;5.97;5.68;;;23.80;60.30;;;;;;5034581;28;20053;-86
2021/08/08 08:34:33;;;;;;;5.82;5.53;;;23.70;60.40;;;;;;5033838;28;20053;-85
2021/08/08 08:36:59;;;;;;;5.68;5.40;;;23.60;60.50;;;;;;5003209;28;20049;-86
2021/08/08 08:39:25;;;;;;;5.30;5.00;;;23.50;60.60;;;;;;5034886;28;20032;-87
2021/08/08 08:41:52;;;;;;;6.15;5.75;;;23.60;60.50;;;;;;5030342;28;20395;-85
2021/08/08 08:44:18;;;;;;;5.63;5.35;;;23.70;60.10;;;;;;5035521;28;20033;-85
2021/08/08 08:46:45;;;;;;;5.30;5.10;;;23.60;60.00;;;;;;5016990;28;20048;-86
2021/08/08 08:49:11;;;;;;;5.43;5.13;;;23.60;60.10;;;;;;5032703;28;20037;-86
2021/08/08 08:51:40;;;;;;;5.40;5.20;;;23.40;60.20;;;;;;5033679;28;20048;-86
2021/08/08 08:54:06;;;;;;;5.05;4.85;;;23.50;60.30;;;;;;5031155;28;20033;-85
2021/08/08 08:56:32;;;;;;;5.20;5.00;;;23.50;60.10;;;;;;5032504;28;20032;-86
2021/08/08 08:58:59;;;;;;;6.00;5.70;;;23.50;60.00;;;;;;5065151;28;20049;-85
2021/08/08 09:01:25;;;;;;;5.05;4.85;;;23.40;60.00;;;;;;5032515;28;20037;-86
2021/08/08 09:03:51;;;;;;;5.47;5.18;;;23.30;60.00;;;;;;5034772;28;20474;-85
2021/08/08 09:06:17;;;;;;;5.55;5.25;;;23.40;60.00;;;;;;5034024;28;20033;-86
2021/08/08 09:08:43;;;;;;;5.85;5.55;;;23.60;59.60;;;;;;5031520;28;20069;-86
2021/08/08 09:11:09;;;;;;;6.50;6.05;;;23.90;59.20;;;;;;5050371;28;20109;-87
2021/08/08 09:13:56;;;;;;;7.30;6.90;;;24.10;58.70;;;;;;5017006;28;20490;-84
2021/08/08 09:16:26;;;;;;;7.35;7.05;;;24.40;58.20;;;;;;5038776;28;20064;-86
2021/08/08 09:18:53;;;;;;;8.73;8.32;;;24.50;58.10;;;;;;5044157;28;20517;-85
2021/08/08 09:21:20;;;;;;;7.47;7.10;;;24.50;58.10;;;;;;5037766;28;20037;-86
2021/08/08 09:23:57;;;;;;;7.28;6.88;;;24.70;57.90;;;;;;5033759;28;20040;-87
2021/08/08 09:26:41;;;;;;;6.03;5.75;;;24.80;57.50;;;;;;4998805;28;20045;-86
2021/08/08 09:29:13;;;;;;;6.55;5.90;;;24.90;57.30;;;;;;5075690;28;20040;-86
2021/08/08 09:31:40;;;;;;;6.68;6.38;;;24.70;57.30;;;;;;5039196;28;20056;-86
2021/08/08 09:34:07;;;;;;;6.85;6.55;;;24.60;57.60;;;;;;5037372;28;20041;-86
2021/08/08 09:36:40;;;;;;;7.32;7.03;;;24.60;57.50;;;;;;5018677;28;20029;-86
2021/08/08 09:39:07;;;;;;;7.50;6.63;;;24.70;57.30;;;;;;5034606;28;20418;-87
2021/08/08 09:41:33;;;;;;;6.10;5.80;;;24.90;57.00;;;;;;5036983;28;20041;-86
2021/08/08 09:44:09;;;;;;;5.95;5.65;;;24.90;57.30;;;;;;5038089;28;20041;-86
2021/08/08 09:46:36;;;;;;;7.35;7.03;;;24.70;56.80;;;;;;5036393;28;20048;-85
2021/08/08 09:49:12;;;;;;;7.60;7.30;;;24.60;57.10;;;;;;5040349;28;20036;-86
2021/08/08 09:51:51;;;;;;;7.90;7.50;;;24.60;57.10;;;;;;5030063;28;20065;-86
2021/08/08 09:54:17;;;;;;;6.43;6.13;;;24.70;56.80;;;;;;5034422;28;20048;-87
2021/08/08 09:56:44;;;;;;;7.03;6.72;;;25.00;56.40;;;;;;5033238;28;20038;-87
2021/08/08 09:59:10;;;;;;;7.53;7.03;;;25.20;56.00;;;;;;5038547;28;20044;-86
2021/08/08 10:01:37;;;;;;;7.35;7.05;;;25.30;55.80;;;;;;5035445;28;20038;-85
2021/08/08 10:04:03;;;;;;;8.18;7.78;;;25.20;55.70;;;;;;5036638;28;20044;-86
2021/08/08 10:06:30;;;;;;;7.57;7.28;;;25.30;55.70;;;;;;5038148;28;20061;-86
2021/08/08 10:08:56;;;;;;;9.15;8.75;;;25.40;55.50;;;;;;5032092;28;20022;-87
2021/08/08 10:11:22;;;;;;;7.68;7.35;;;25.50;55.20;;;;;;5037997;28;20073;-86
2021/08/08 10:13:52;;;;;;;8.52;8.13;;;25.60;55.10;;;;;;5019911;28;20064;-87
2021/08/08 10:16:19;;;;;;;7.50;7.18;;;25.50;54.80;;;;;;5035193;28;20458;-86
2021/08/08 10:18:50;;;;;;;7.47;7.07;;;25.60;54.90;;;;;;5019109;28;20041;-86
2021/08/08 10:21:16;;;;;;;7.63;7.28;;;25.70;54.60;;;;;;5018928;28;20064;-87
2021/08/08 10:23:43;;;;;;;6.57;6.28;;;25.70;54.40;;;;;;5032937;28;20036;-86
2021/08/08 10:26:09;;;;;;;6.72;6.43;;;25.60;54.40;;;;;;5036804;28;20036;-86
2021/08/08 10:28:35;;;;;;;6.90;6.60;;;25.40;54.50;;;;;;5034826;28;20295;-85
2021/08/08 10:31:02;;;;;;;5.50;5.28;;;25.20;54.70;;;;;;5003793;28;20033;-86
2021/08/08 10:33:28;;;;;;;5.90;5.60;;;24.90;55.00;;;;;;5033959;28;20188;-87
2021/08/08 10:35:55;;;;;;;4.97;4.78;;;24.80;55.10;;;;;;5031893;28;20056;-86
2021/08/08 10:38:21;;;;;;;6.15;5.65;;;24.90;55.00;;;;;;5038631;28;20021;-86
2021/08/08 10:40:47;;;;;;;6.40;6.10;;;25.00;54.70;;;;;;5036003;28;20398;-85
2021/08/08 10:43:31;;;;;;;5.95;5.68;;;25.10;54.50;;;;;;5001954;28;20497;-86
2021/08/08 10:46:10;;;;;;;7.38;6.97;;;25.30;54.30;;;;;;5035102;28;20041;-87
2021/08/08 10:48:37;;;;;;;7.03;6.72;;;25.40;54.00;;;;;;5033866;28;20029;-86
2021/08/08 10:51:19;;;;;;;6.75;6.45;;;25.60;53.90;;;;;;5033733;28;20052;-87
2021/08/08 10:53:45;;;;;;;7.97;7.60;;;25.70;53.60;;;;;;5017154;28;20045;-86
2021/08/08 10:56:11;;;;;;;7.78;7.40;;;25.70;53.40;;;;;;5017377;28;20038;-84
2021/08/08 10:58:41;;;;;;;8.45;8.05;;;25.70;53.60;;;;;;5050802;28;20036;-86
2021/08/08 11:01:20;;;;;;;9.27;8.88;;;25.80;53.50;;;;;;5035585;28;20504;-86
2021/08/08 11:03:53;;;;;;;11.05;10.55;;;25.90;53.20;;;;;;5044025;28;20489;-86
2021/08/08 11:06:25;;;;;;;12.13;11.57;;;26.10;53.10;;;;;;5034504;28;20036;-86
2021/08/08 11:08:52;;;;;;;13.05;12.45;;;26.20;52.80;;;;;;5046076;28;20033;-86
2021/08/08 11:11:25;;;;;;;10.23;9.73;;;26.30;52.60;;;;;;5069101;28;20437;-86
2021/08/08 11:13:55;;;;;;;9.95;9.48;;;26.30;52.60;;;;;;5036190;28;20029;-87
2021/08/08 11:16:21;;;;;;;10.97;10.47;;;26.20;52.70;;;;;;5034729;28;20044;-86
2021/08/08 11:18:56;;;;;;;10.35;9.85;;;26.00;52.90;;;;;;5035749;28;20284;-87
2021/08/08 11:21:26;;;;;;;10.65;9.85;;;25.90;53.10;;;;;;5035672;28;20470;-86
2021/08/08 11:23:56;;;;;;;9.50;9.07;;;25.80;53.10;;;;;;4996924;28;20094;-85
2021/08/08 11:26:23;;;;;;;10.20;9.43;;;25.90;53.00;;;;;;5045751;28;20486;-86
2021/08/08 11:28:54;;;;;;;8.30;7.90;;;25.90;52.90;;;;;;5017420;28;20045;-86
2021/08/08 11:31:20;;;;;;;;;;;25.70;53.60;;;;;;5036009;28;20033;-86
2021/08/08 11:33:46;;;;;;;5.15;4.95;;;25.40;53.20;;;;;;5035660;28;19932;-86
2021/08/08 11:36:12;;;;;;;5.30;5.10;;;25.20;53.50;;;;;;5016559;28;20378;-86
2021/08/08 11:38:40;;;;;;;4.90;4.70;;;24.90;53.90;;;;;;5032001;28;20029;-85
2021/08/08 11:41:08;;;;;;;7.25;6.90;;;24.70;54.10;;;;;;5038074;28;20033;-85
2021/08/08 11:43:34;;;;;;;6.05;5.75;;;24.60;54.30;;;;;;5032937;28;20049;-86
2021/08/08 11:46:03;;;;;;;5.82;5.53;;;24.60;54.30;;;;;;5033788;28;20402;-86
2021/08/08 11:48:30;;;;;;;5.75;5.45;;;24.70;54.20;;;;;;5034835;28;20024;-86
2021/08/08 11:50:57;;;;;;;7.82;6.15;;;24.90;54.10;;;;;;5013107;28;20058;-84
2021/08/08 11:53:38;;;;;;;5.82;5.53;;;24.90;53.90;;;;;;5036980;28;20037;-87
2021/08/08 11:56:14;;;;;;;6.15;5.85;;;25.00;53.70;;;;;;5037514;28;20394;-86
2021/08/08 11:58:53;;;;;;;5.32;5.13;;;25.10;53.60;;;;;;5035678;28;20049;-86
2021/08/08 12:01:25;;;;;;;5.38;5.18;;;25.20;53.40;;;;;;5017803;28;20033;-85
2021/08/08 12:04:04;;;;;;;6.63;6.32;;;25.30;53.20;;;;;;5034589;28;20410;-86
2021/08/08 12:06:30;;;;;;;7.20;6.85;;;25.60;53.00;;;;;;5035335;28;20359;-86
2021/08/08 12:08:56;;;;;;;8.60;8.20;;;25.80;52.60;;;;;;5013949;28;20034;-85
2021/08/08 12:11:22;;;;;;;9.52;9.07;;;26.00;52.40;;;;;;5035876;28;20053;-86
2021/08/08 12:14:02;;;;;;;9.75;9.32;;;26.20;52.20;;;;;;5017693;28;20038;-87
2021/08/08 12:16:36;;;;;;;10.77;10.27;;;26.30;52.00;;;;;;5034669;28;20241;-85
2021/08/08 12:19:02;;;;;;;9.15;8.75;;;26.30;52.00;;;;;;5034200;28;20033;-86
2021/08/08 12:21:33;;;;;;;9.43;9.02;;;26.30;52.00;;;;;;5033307;28;20490;-86
2021/08/08 12:24:10;;;;;;;9.20;8.25;;;26.30;52.00;;;;;;5028510;28;20491;-86
2021/08/08 12:26:42;;;;;;;9.57;9.02;;;26.30;51.90;;;;;;5032806;28;20046;-86
2021/08/08 12:29:09;;;;;;;10.02;9.25;;;26.20;51.80;;;;;;5050919;28;20037;-86
2021/08/08 12:31:40;;;;;;;9.27;8.77;;;26.20;51.80;;;;;;5034120;28;20051;-86
2021/08/08 12:34:09;;;;;;;8.27;7.88;;;26.30;52.30;;;;;;5034711;28;20379;-84
2021/08/08 12:36:42;;;;;;;7.93;7.53;;;26.30;51.60;;;;;;5033829;28;20025;-86
2021/08/08 12:39:09;;;;;;;7.82;7.45;;;26.50;51.40;;;;;;5032729;28;20026;-86
2021/08/08 12:41:39;;;;;;;7.50;7.18;;;26.50;51.30;;;;;;5032613;28;20041;-86
2021/08/08 12:44:05;;;;;;;10.38;7.60;;;26.30;51.30;;;;;;5035224;28;20022;-84
2021/08/08 12:46:39;;;;;;;7.20;6.90;;;26.10;51.50;;;;;;5034583;28;20041;-85